Time,TemperatureF,DewpointF,PressureIn,WindDirection,WindDirectionDegrees,WindSpeedMPH,WindSpeedGustMPH,Humidity,HourlyPrecipIn,Conditions,Clouds,dailyrainin,SoftwareType,DateUTC
2013-03-11 00:01:00,33.0,33.0,30.20,South,180,0.0,0.0,100,0.00,,,0.00,WSDL version 423,2013-03-11 04:01:00,
2013-03-11 00:11:00,32.7,32.7,30.20,South,180,0.0,0.0,100,0.00,,,0.00,WSDL version 423,2013-03-11 04:11:00,
2013-03-11 00:21:00,32.5,32.5,30.21,South,180,0.0,0.0,100,0.00,,,0.00,WSDL version 423,2013-03-11 04:21:00,
2013-03-11 00:31:00,32.3,32.3,30.20,South,180,0.0,0.0,100,0.00,,,0.00,WSDL version 423,2013-03-11 04:31:00,
2013-03-11 00:41:00,32.2,32.2,30.20,South,180,0.0,0.0,100,0.00,,,0.00,WSDL version 423,2013-03-11 04:41:00,
2013-03-11 00:51:00,32.2,32.2,30.20,South,180,0.0,0.0,100,0.00,,,0.00,WSDL version 423,2013-03-11 04:51:00,
2013-03-11 01:01:00,32.2,32.2,30.20,South,180,0.0,0.0,100,0.00,,,0.00,WSDL version 423,2013-03-11 05:01:00,
2013-03-11 01:11:00,32.2,32.2,30.20,South,180,0.0,0.0,100,0.00,,,0.00,WSDL version 423,2013-03-11 05:11:00,
2013-03-11 01:21:00,32.5,32.5,30.21,South,180,0.0,0.0,100,0.00,,,0.00,WSDL version 423,2013-03-11 05:21:00,
2013-03-11 01:31:00,32.7,32.7,30.22,South,180,0.0,0.0,100,0.00,,,0.00,WSDL version 423,2013-03-11 05:31:00,
2013-03-11 01:41:00,32.8,32.8,30.22,South,180,0.0,0.0,100,0.00,,,0.00,WSDL version 423,2013-03-11 05:41:00,
2013-03-11 01:51:00,32.7,32.7,30.21,South,180,0.0,0.0,100,0.00,,,0.00,WSDL version 423,2013-03-11 05:51:00,
2013-03-11 02:01:00,32.7,32.7,30.21,WNW,293,0.0,0.0,100,0.00,,,0.00,WSDL version 423,2013-03-11 06:01:00,
2013-03-11 02:11:00,32.7,32.7,30.21,WNW,293,0.0,0.0,100,0.00,,,0.00,WSDL version 423,2013-03-11 06:11:00,
2013-03-11 02:21:00,32.7,32.7,30.21,WNW,293,0.0,0.0,100,0.00,,,0.00,WSDL version 423,2013-03-11 06:21:00,
2013-03-11 02:31:00,32.7,32.7,30.21,WNW,293,0.0,0.0,100,0.00,,,0.00,WSDL version 423,2013-03-11 06:31:00,
2013-03-11 02:41:00,33.0,33.0,30.21,WNW,293,0.0,0.0,100,0.00,,,0.00,WSDL version 423,2013-03-11 06:41:00,
2013-03-11 02:51:00,33.1,33.1,30.20,WNW,293,0.0,0.0,100,0.00,,,0.00,WSDL version 423,2013-03-11 06:51:00,
2013-03-11 03:01:00,33.2,33.2,30.19,WNW,293,0.0,0.0,100,0.00,,,0.00,WSDL version 423,2013-03-11 07:01:00,
2013-03-11 03:11:00,33.3,33.3,30.18,WNW,293,0.0,0.0,100,0.00,,,0.00,WSDL version 423,2013-03-11 07:11:00,
2013-03-11 03:21:00,33.3,33.3,30.16,WNW,293,0.0,0.0,100,0.00,,,0.00,WSDL version 423,2013-03-11 07:21:00,
2013-03-11 03:31:00,33.2,33.2,30.15,WNW,293,0.0,0.0,100,0.00,,,0.00,WSDL version 423,2013-03-11 07:31:00,
2013-03-11 03:41:00,33.1,33.1,30.17,WNW,293,0.0,0.0,100,0.00,,,0.00,WSDL version 423,2013-03-11 07:41:00,
2013-03-11 03:51:00,33.3,33.3,30.17,WNW,293,0.0,0.0,100,0.00,,,0.00,WSDL version 423,2013-03-11 07:51:00,
2013-03-11 04:01:00,33.6,33.6,30.17,WNW,293,0.0,2.7,100,0.00,,,0.00,WSDL version 423,2013-03-11 08:01:00,
2013-03-11 04:11:00,33.8,33.8,30.17,WNW,293,0.0,3.6,100,0.00,,,0.00,WSDL version 423,2013-03-11 08:11:00,
2013-03-11 04:21:00,33.8,33.8,30.17,WNW,293,0.0,3.6,100,0.00,,,0.00,WSDL version 423,2013-03-11 08:21:00,
2013-03-11 04:31:00,34.0,34.0,30.16,WNW,293,0.0,3.6,100,0.00,,,0.00,WSDL version 423,2013-03-11 08:31:00,
2013-03-11 04:41:00,34.0,34.0,30.16,WNW,293,0.0,2.2,100,0.00,,,0.00,WSDL version 423,2013-03-11 08:41:00,
2013-03-11 04:51:00,34.0,34.0,30.16,WNW,293,0.0,0.0,100,0.00,,,0.00,WSDL version 423,2013-03-11 08:51:00,
2013-03-11 05:01:00,34.0,34.0,30.16,WNW,293,0.0,5.4,100,0.00,,,0.00,WSDL version 423,2013-03-11 09:01:00,
2013-03-11 05:11:00,34.0,34.0,30.15,WNW,293,0.0,2.7,100,0.00,,,0.00,WSDL version 423,2013-03-11 09:11:00,
2013-03-11 05:21:00,33.9,33.9,30.14,WNW,293,0.0,0.0,100,0.00,,,0.00,WSDL version 423,2013-03-11 09:21:00,
2013-03-11 05:31:00,33.8,33.8,30.14,WNW,293,0.0,0.0,100,0.00,,,0.00,WSDL version 423,2013-03-11 09:31:00,
2013-03-11 05:41:00,33.8,33.8,30.14,WNW,293,0.0,3.1,100,0.00,,,0.00,WSDL version 423,2013-03-11 09:41:00,
2013-03-11 05:51:00,33.8,33.8,30.15,WNW,293,0.0,0.0,100,0.00,,,0.00,WSDL version 423,2013-03-11 09:51:00,
2013-03-11 06:01:00,33.8,33.8,30.15,WNW,293,0.0,2.2,100,0.00,,,0.00,WSDL version 423,2013-03-11 10:01:00,
2013-03-11 06:11:00,33.8,33.8,30.14,WNW,293,0.0,2.7,100,0.00,,,0.00,WSDL version 423,2013-03-11 10:11:00,
2013-03-11 06:21:00,33.8,33.8,30.16,WNW,293,0.0,2.2,100,0.00,,,0.00,WSDL version 423,2013-03-11 10:21:00,
2013-03-11 06:31:00,33.8,33.8,30.17,WNW,293,0.0,3.1,100,0.00,,,0.00,WSDL version 423,2013-03-11 10:31:00,
2013-03-11 06:41:00,33.8,33.8,30.16,WNW,293,0.0,0.0,100,0.00,,,0.00,WSDL version 423,2013-03-11 10:41:00,
2013-03-11 06:51:00,33.8,33.8,30.16,WNW,293,0.0,0.0,100,0.00,,,0.00,WSDL version 423,2013-03-11 10:51:00,
2013-03-11 07:01:00,33.7,33.7,30.16,WNW,293,0.0,0.0,100,0.00,,,0.00,WSDL version 423,2013-03-11 11:01:00,
2013-03-11 07:11:00,33.7,33.7,30.16,WNW,293,0.0,3.1,100,0.00,,,0.00,WSDL version 423,2013-03-11 11:11:00,
2013-03-11 07:21:00,33.8,33.8,30.15,WNW,293,0.0,2.7,100,0.00,,,0.00,WSDL version 423,2013-03-11 11:21:00,
2013-03-11 07:31:00,34.1,34.1,30.15,WNW,293,0.0,0.0,100,0.00,,,0.00,WSDL version 423,2013-03-11 11:31:00,
2013-03-11 07:41:00,34.2,34.2,30.15,WNW,293,0.0,0.0,100,0.00,,,0.00,WSDL version 423,2013-03-11 11:41:00,
2013-03-11 07:51:00,34.2,34.2,30.16,WNW,293,0.0,0.0,100,0.00,,,0.00,WSDL version 423,2013-03-11 11:51:00,
2013-03-11 08:01:00,34.3,34.3,30.16,WNW,293,0.0,2.7,100,0.00,,,0.00,WSDL version 423,2013-03-11 12:01:00,
2013-03-11 08:11:00,34.7,34.7,30.16,WNW,293,0.0,0.0,100,0.00,,,0.00,WSDL version 423,2013-03-11 12:11:00,
2013-03-11 08:21:00,35.8,35.8,30.16,WNW,293,0.0,0.0,100,0.00,,,0.00,WSDL version 423,2013-03-11 12:21:00,
2013-03-11 08:31:00,36.3,36.3,30.16,WNW,293,0.0,0.0,100,0.00,,,0.00,WSDL version 423,2013-03-11 12:31:00,
2013-03-11 08:41:00,36.4,36.4,30.15,SSW,203,0.0,3.6,100,0.00,,,0.00,WSDL version 423,2013-03-11 12:41:00,
2013-03-11 08:51:00,37.5,37.5,30.15,South,180,0.0,4.0,100,0.00,,,0.00,WSDL version 423,2013-03-11 12:51:00,
2013-03-11 09:01:00,38.6,38.6,30.15,ENE,74,0.0,3.6,100,0.00,,,0.00,WSDL version 423,2013-03-11 13:01:00,
2013-03-11 09:11:00,39.5,39.5,30.15,SSW,197,0.0,3.1,100,0.00,,,0.00,WSDL version 423,2013-03-11 13:11:00,
2013-03-11 09:21:00,40.5,40.5,30.16,WSW,238,2.3,5.4,100,0.00,,,0.00,WSDL version 423,2013-03-11 13:21:00,
2013-03-11 09:31:00,41.3,41.3,30.15,SSW,208,1.2,4.0,100,0.00,,,0.00,WSDL version 423,2013-03-11 13:31:00,
2013-03-11 09:41:00,42.4,42.4,30.15,South,184,1.6,5.8,100,0.00,,,0.00,WSDL version 423,2013-03-11 13:41:00,
2013-03-11 09:51:00,43.4,43.4,30.15,WSW,256,1.6,5.8,100,0.00,,,0.00,WSDL version 423,2013-03-11 13:51:00,
2013-03-11 10:01:00,44.6,44.6,30.15,SE,143,0.4,4.9,100,0.00,,,0.00,WSDL version 423,2013-03-11 14:01:00,
2013-03-11 10:11:00,43.7,43.7,30.15,WNW,300,1.2,6.3,100,0.00,,,0.00,WSDL version 423,2013-03-11 14:11:00,
2013-03-11 10:21:00,42.8,42.8,30.15,West,270,0.0,4.0,100,0.00,,,0.00,WSDL version 423,2013-03-11 14:21:00,
2013-03-11 10:31:00,42.4,42.4,30.15,West,275,0.0,3.1,100,0.00,,,0.00,WSDL version 423,2013-03-11 14:31:00,
2013-03-11 10:41:00,44.0,44.0,30.15,WNW,293,0.0,3.6,100,0.00,,,0.00,WSDL version 423,2013-03-11 14:41:00,
2013-03-11 10:51:00,46.5,46.5,30.14,NW,315,0.0,4.0,100,0.00,,,0.00,WSDL version 423,2013-03-11 14:51:00,
2013-03-11 11:01:00,46.7,46.7,30.14,SSW,206,0.0,4.9,100,0.00,,,0.00,WSDL version 423,2013-03-11 15:01:00,
2013-03-11 11:11:00,47.1,47.1,30.15,SW,219,0.0,4.0,100,0.00,,,0.00,WSDL version 423,2013-03-11 15:11:00,
2013-03-11 11:21:00,46.4,46.4,30.15,WNW,302,1.0,5.4,100,0.00,,,0.00,WSDL version 423,2013-03-11 15:21:00,
2013-03-11 11:31:00,48.3,48.3,30.14,NW,305,0.0,2.2,100,0.00,,,0.00,WSDL version 423,2013-03-11 15:31:00,
2013-03-11 11:41:00,50.1,50.1,30.14,SSW,203,0.0,4.9,100,0.00,,,0.00,WSDL version 423,2013-03-11 15:41:00,
2013-03-11 11:51:00,51.7,51.7,30.14,West,262,0.0,3.6,100,0.00,,,0.00,WSDL version 423,2013-03-11 15:51:00,
2013-03-11 12:01:00,54.3,54.3,30.13,East,96,0.0,0.0,100,0.00,,,0.00,WSDL version 423,2013-03-11 16:01:00,
2013-03-11 12:11:00,53.4,53.4,30.14,South,177,0.4,4.9,100,0.00,,,0.00,WSDL version 423,2013-03-11 16:11:00,
2013-03-11 12:21:00,55.4,55.4,30.13,SSW,205,1.7,3.6,100,0.00,,,0.00,WSDL version 423,2013-03-11 16:21:00,
2013-03-11 12:31:00,54.1,54.1,30.13,SSE,160,0.0,2.2,100,0.00,,,0.00,WSDL version 423,2013-03-11 16:31:00,
2013-03-11 12:41:00,53.5,53.5,30.13,NE,40,0.0,3.1,100,0.00,,,0.00,WSDL version 423,2013-03-11 16:41:00,
2013-03-11 12:51:00,52.8,52.8,30.13,NNW,343,0.0,4.0,100,0.00,,,0.00,WSDL version 423,2013-03-11 16:51:00,
2013-03-11 13:01:00,53.6,53.6,30.13,WNW,293,0.0,5.4,100,0.00,,,0.00,WSDL version 423,2013-03-11 17:01:00,
2013-03-11 13:11:00,55.5,55.5,30.12,SE,129,0.0,8.1,100,0.00,,,0.00,WSDL version 423,2013-03-11 17:11:00,
2013-03-11 13:21:00,55.9,55.9,30.11,East,90,0.0,0.0,100,0.00,,,0.00,WSDL version 423,2013-03-11 17:21:00,
2013-03-11 13:31:00,56.4,56.4,30.11,WSW,248,2.7,8.3,100,0.00,,,0.00,WSDL version 423,2013-03-11 17:31:00,
2013-03-11 13:41:00,55.7,55.7,30.11,SW,225,0.0,2.7,100,0.00,,,0.00,WSDL version 423,2013-03-11 17:41:00,
2013-03-11 13:51:00,54.9,54.9,30.11,SSW,200,0.0,4.9,100,0.00,,,0.00,WSDL version 423,2013-03-11 17:51:00,
2013-03-11 14:01:00,54.6,54.6,30.10,WSW,243,0.8,6.7,100,0.00,,,0.00,WSDL version 423,2013-03-11 18:01:00,
2013-03-11 14:11:00,54.3,54.3,30.10,WSW,248,0.0,0.0,100,0.00,,,0.00,WSDL version 423,2013-03-11 18:11:00,
2013-03-11 14:21:00,54.5,54.5,30.09,SSW,209,0.0,4.0,100,0.00,,,0.00,WSDL version 423,2013-03-11 18:21:00,
2013-03-11 14:31:00,54.3,54.3,30.09,SW,222,0.0,7.6,100,0.00,,,0.00,WSDL version 423,2013-03-11 18:31:00,
2013-03-11 14:41:00,55.1,55.1,30.09,SSE,151,0.0,0.0,100,0.00,,,0.00,WSDL version 423,2013-03-11 18:41:00,
2013-03-11 14:51:00,56.4,56.4,30.09,SSE,163,0.0,2.2,100,0.00,,,0.00,WSDL version 423,2013-03-11 18:51:00,
2013-03-11 15:01:00,56.5,56.5,30.08,SSE,163,0.0,4.9,100,0.00,,,0.00,WSDL version 423,2013-03-11 19:01:00,
2013-03-11 15:11:00,56.2,56.2,30.08,SSW,205,0.0,4.9,100,0.00,,,0.00,WSDL version 423,2013-03-11 19:11:00,
2013-03-11 15:21:00,58.0,58.0,30.07,SW,215,0.0,5.8,100,0.00,,,0.00,WSDL version 423,2013-03-11 19:21:00,
2013-03-11 15:31:00,56.9,56.9,30.07,SW,225,0.0,4.0,100,0.00,,,0.00,WSDL version 423,2013-03-11 19:31:00,
2013-03-11 15:41:00,56.9,56.9,30.07,SSW,208,0.0,2.7,100,0.00,,,0.00,WSDL version 423,2013-03-11 19:41:00,
2013-03-11 15:51:00,56.6,56.6,30.07,South,183,0.0,2.2,100,0.00,,,0.00,WSDL version 423,2013-03-11 19:51:00,
2013-03-11 16:01:00,56.0,56.0,30.07,NNW,338,0.0,4.9,100,0.00,,,0.00,WSDL version 423,2013-03-11 20:01:00,
2013-03-11 16:11:00,54.8,54.8,30.07,SW,219,0.0,2.2,100,0.00,,,0.00,WSDL version 423,2013-03-11 20:11:00,
2013-03-11 16:21:00,54.6,54.6,30.07,SW,225,0.0,0.0,100,0.00,,,0.00,WSDL version 423,2013-03-11 20:21:00,
2013-03-11 16:31:00,54.2,54.2,30.06,SW,217,0.0,2.7,100,0.00,,,0.00,WSDL version 423,2013-03-11 20:31:00,
2013-03-11 16:41:00,53.3,53.3,30.05,South,172,0.0,0.0,100,0.00,,,0.00,WSDL version 423,2013-03-11 20:41:00,
2013-03-11 16:51:00,52.2,52.2,30.06,SW,225,0.0,0.0,100,0.00,,,0.00,WSDL version 423,2013-03-11 20:51:00,
2013-03-11 17:01:00,51.6,51.6,30.06,SSE,163,0.0,0.0,100,0.00,,,0.00,WSDL version 423,2013-03-11 21:01:00,
2013-03-11 17:11:00,51.5,51.5,30.06,SSW,193,0.0,0.0,100,0.00,,,0.00,WSDL version 423,2013-03-11 21:11:00,
2013-03-11 17:21:00,51.0,51.0,30.06,SW,225,0.0,2.2,100,0.00,,,0.00,WSDL version 423,2013-03-11 21:21:00,
2013-03-11 17:31:00,50.6,50.6,30.05,SSE,160,0.0,0.0,100,0.00,,,0.00,WSDL version 423,2013-03-11 21:31:00,
2013-03-11 17:41:00,50.2,50.2,30.05,South,183,0.0,0.0,100,0.00,,,0.00,WSDL version 423,2013-03-11 21:41:00,
2013-03-11 17:51:00,49.8,49.8,30.06,South,191,0.0,0.0,100,0.00,,,0.00,WSDL version 423,2013-03-11 21:51:00,
2013-03-11 18:01:00,48.9,48.9,30.05,SW,225,0.0,0.0,100,0.00,,,0.00,WSDL version 423,2013-03-11 22:01:00,
2013-03-11 18:11:00,48.5,48.5,30.05,SSW,210,0.0,0.0,100,0.00,,,0.00,WSDL version 423,2013-03-11 22:11:00,
2013-03-11 18:21:00,47.7,47.7,30.06,South,180,0.0,0.0,100,0.00,,,0.00,WSDL version 423,2013-03-11 22:21:00,
2013-03-11 18:31:00,46.9,46.9,30.05,South,177,0.0,0.0,100,0.00,,,0.00,WSDL version 423,2013-03-11 22:31:00,
2013-03-11 18:41:00,46.3,46.3,30.05,SSW,205,0.0,3.6,100,0.00,,,0.00,WSDL version 423,2013-03-11 22:41:00,
2013-03-11 18:51:00,45.8,45.8,30.05,SSW,203,0.0,3.1,100,0.00,,,0.00,WSDL version 423,2013-03-11 22:51:00,
2013-03-11 19:01:00,45.3,45.3,30.06,SSW,203,0.0,3.1,100,0.00,,,0.00,WSDL version 423,2013-03-11 23:01:00,
2013-03-11 19:11:00,44.3,44.3,30.06,SSW,196,0.0,0.0,100,0.00,,,0.00,WSDL version 423,2013-03-11 23:11:00,
2013-03-11 19:21:00,44.1,44.1,30.06,SW,225,0.0,3.1,100,0.00,,,0.00,WSDL version 423,2013-03-11 23:21:00,
2013-03-11 19:31:00,43.7,43.7,30.06,South,172,0.0,5.4,100,0.00,,,0.00,WSDL version 423,2013-03-11 23:31:00,
2013-03-11 19:41:00,43.4,43.4,30.06,SSE,160,0.0,3.1,100,0.00,,,0.00,WSDL version 423,2013-03-11 23:41:00,
2013-03-11 19:51:00,43.1,43.1,30.07,SSW,210,0.4,4.9,100,0.00,,,0.00,WSDL version 423,2013-03-11 23:51:00,
2013-03-11 20:01:00,43.0,43.0,30.07,SSW,203,0.0,4.0,100,0.00,,,0.00,WSDL version 423,2013-03-12 00:01:00,
2013-03-11 20:11:00,42.9,42.9,30.06,SSE,161,0.0,2.2,100,0.00,,,0.00,WSDL version 423,2013-03-12 00:11:00,
2013-03-11 20:21:00,42.5,42.5,30.06,South,180,0.0,2.7,100,0.00,,,0.00,WSDL version 423,2013-03-12 00:21:00,
2013-03-11 20:31:00,42.3,42.3,30.06,South,180,0.0,0.0,100,0.00,,,0.00,WSDL version 423,2013-03-12 00:31:00,
2013-03-11 20:41:00,42.1,42.1,30.06,SE,132,0.0,0.0,100,0.00,,,0.00,WSDL version 423,2013-03-12 00:41:00,
2013-03-11 20:51:00,42.4,42.4,30.06,West,263,0.0,3.1,100,0.00,,,0.00,WSDL version 423,2013-03-12 00:51:00,
2013-03-11 21:01:00,42.2,42.2,30.07,SW,225,0.0,3.6,100,0.00,,,0.00,WSDL version 423,2013-03-12 01:01:00,
2013-03-11 21:11:00,42.0,42.0,30.07,South,180,0.0,2.7,100,0.00,,,0.00,WSDL version 423,2013-03-12 01:11:00,
2013-03-11 21:21:00,41.5,41.5,30.06,SSW,203,0.0,3.1,100,0.00,,,0.00,WSDL version 423,2013-03-12 01:21:00,
2013-03-11 21:31:00,41.2,41.2,30.06,SW,225,0.0,2.2,100,0.00,,,0.00,WSDL version 423,2013-03-12 01:31:00,
2013-03-11 21:41:00,41.2,41.2,30.06,SSW,203,0.0,4.0,100,0.00,,,0.00,WSDL version 423,2013-03-12 01:41:00,
2013-03-11 21:51:00,41.4,41.4,30.06,SSW,203,0.0,4.0,100,0.00,,,0.00,WSDL version 423,2013-03-12 01:51:00,
2013-03-11 22:01:00,41.2,41.2,30.05,South,180,0.0,3.1,100,0.00,,,0.00,WSDL version 423,2013-03-12 02:01:00,
2013-03-11 22:11:00,41.1,41.1,30.05,SSW,210,0.0,2.7,100,0.00,,,0.00,WSDL version 423,2013-03-12 02:11:00,
2013-03-11 22:21:00,40.9,40.9,30.05,SW,222,1.3,3.1,100,0.00,,,0.00,WSDL version 423,2013-03-12 02:21:00,
2013-03-11 22:31:00,40.6,40.6,30.05,South,183,0.0,2.2,100,0.00,,,0.00,WSDL version 423,2013-03-12 02:31:00,
2013-03-11 22:41:00,40.3,40.3,30.05,SW,225,0.0,2.7,100,0.00,,,0.00,WSDL version 423,2013-03-12 02:41:00,
2013-03-11 22:51:00,40.3,40.3,30.04,SSW,203,0.0,0.0,100,0.00,,,0.00,WSDL version 423,2013-03-12 02:51:00,
2013-03-11 23:01:00,40.0,40.0,30.04,SSW,203,0.0,0.0,100,0.00,,,0.00,WSDL version 423,2013-03-12 03:01:00,
2013-03-11 23:11:00,39.5,39.5,30.04,SSW,194,0.0,0.0,100,0.00,,,0.00,WSDL version 423,2013-03-12 03:11:00,
2013-03-11 23:21:00,39.4,39.4,30.04,South,180,0.0,0.0,100,0.00,,,0.00,WSDL version 423,2013-03-12 03:21:00,
2013-03-11 23:31:00,39.3,39.3,30.05,SSW,203,0.0,0.0,100,0.00,,,0.00,WSDL version 423,2013-03-12 03:31:00,
2013-03-11 23:41:00,39.6,39.6,30.05,SSW,203,0.0,3.1,100,0.00,,,0.00,WSDL version 423,2013-03-12 03:41:00,
2013-03-11 23:51:00,39.3,39.3,30.05,SSW,203,0.0,0.0,100,0.00,,,0.00,WSDL version 423,2013-03-12 03:51:00,